Time,TemperatureF,DewpointF,PressureIn,WindDirection,WindDirectionDegrees,WindSpeedMPH,WindSpeedGustMPH,Humidity,HourlyPrecipIn,Conditions,Clouds,dailyrainin,SoftwareType,DateUTC
2013-12-15 00:21:00,35.0,31.0,30.19,SE,126,0.0,1.0,84,0.00,,,0.10,,2013-12-15 07:21:00,
2013-12-15 00:41:00,35.0,31.0,30.19,SE,126,0.0,3.0,84,0.00,,,0.10,,2013-12-15 07:41:00,
2013-12-15 00:52:00,35.0,31.0,30.19,SE,126,0.0,2.0,85,0.00,,,0.10,,2013-12-15 07:52:00,
2013-12-15 01:22:00,33.0,29.0,30.18,SE,126,0.0,2.0,84,0.00,,,0.10,,2013-12-15 08:22:00,
2013-12-15 01:42:00,32.0,28.0,30.20,SE,126,0.0,3.0,85,0.00,,,0.10,,2013-12-15 08:42:00,
2013-12-15 01:52:00,30.0,27.0,30.20,SSE,160,0.0,3.0,87,0.00,,,0.10,,2013-12-15 08:52:00,
2013-12-15 02:11:00,29.0,26.0,30.18,SSE,160,0.0,2.0,88,0.00,,,0.10,,2013-12-15 09:11:00,
2013-12-15 02:21:00,28.0,25.0,30.17,SSE,161,0.0,2.0,89,0.00,,,0.10,,2013-12-15 09:21:00,
2013-12-15 02:43:00,28.0,25.0,30.18,South,178,0.0,2.0,90,0.00,,,0.10,,2013-12-15 09:43:00,
2013-12-15 02:53:00,27.0,24.0,30.19,South,178,0.0,2.0,90,0.00,,,0.10,,2013-12-15 09:53:00,
2013-12-15 03:23:00,24.0,21.0,30.18,South,178,0.0,0.0,89,0.00,,,0.10,,2013-12-15 10:23:00,
2013-12-15 03:52:00,24.0,22.0,30.19,SSW,195,0.0,2.0,91,0.00,,,0.10,,2013-12-15 10:52:00,
2013-12-15 04:21:00,22.0,20.0,30.19,SSW,195,0.0,1.0,90,0.00,,,0.10,,2013-12-15 11:21:00,
2013-12-15 04:52:00,20.0,18.0,30.18,SSW,195,0.0,1.0,90,0.00,,,0.10,,2013-12-15 11:52:00,
2013-12-15 05:21:00,22.0,20.0,30.17,SSW,195,0.0,1.0,93,0.00,,,0.10,,2013-12-15 12:21:00,
2013-12-15 05:52:00,21.0,19.0,30.17,SSW,195,0.0,0.0,92,0.00,,,0.10,,2013-12-15 12:52:00,
2013-12-15 06:11:00,22.0,20.0,30.15,SSW,195,0.0,0.0,92,0.00,,,0.10,,2013-12-15 13:11:00,
2013-12-15 06:21:00,22.0,20.0,30.15,SSW,195,0.0,0.0,92,0.00,,,0.10,,2013-12-15 13:21:00,
2013-12-15 06:31:00,22.0,20.0,30.15,SSW,195,0.0,0.0,92,0.00,,,0.10,,2013-12-15 13:31:00,
2013-12-15 06:52:00,23.0,21.0,30.14,SSW,195,0.0,0.0,93,0.00,,,0.10,,2013-12-15 13:52:00,
2013-12-15 07:22:00,24.0,22.0,30.15,SSW,195,0.0,4.0,93,0.00,,,0.10,,2013-12-15 14:22:00,
2013-12-15 07:42:00,25.0,23.0,30.15,SSW,195,0.0,3.0,93,0.00,,,0.10,,2013-12-15 14:42:00,
2013-12-15 07:52:00,26.0,25.0,30.16,SSW,198,0.0,1.0,94,0.00,,,0.10,,2013-12-15 14:52:00,
2013-12-15 08:22:00,27.0,26.0,30.16,SSW,198,0.0,1.0,94,0.00,,,0.10,,2013-12-15 15:22:00,
2013-12-15 08:53:00,28.0,27.0,30.15,SSW,202,0.0,5.0,94,0.00,,,0.10,,2013-12-15 15:53:00,
2013-12-15 09:23:00,28.0,27.0,30.14,SSW,202,0.0,1.0,94,0.00,,,0.10,,2013-12-15 16:23:00,
2013-12-15 09:33:00,28.0,27.0,30.14,SSW,202,0.0,1.0,94,0.00,,,0.10,,2013-12-15 16:33:00,
2013-12-15 09:43:00,28.0,27.0,30.14,SSW,202,0.0,1.0,94,0.00,,,0.10,,2013-12-15 16:43:00,
2013-12-15 09:52:00,29.0,27.0,30.14,SSW,202,0.0,2.0,94,0.00,,,0.10,,2013-12-15 16:52:00,
2013-12-15 10:22:00,29.0,27.0,30.14,SSW,202,0.0,0.0,93,0.00,,,0.10,,2013-12-15 17:22:00,
2013-12-15 10:42:00,30.0,28.0,30.16,SSW,202,0.0,0.0,93,0.00,,,0.10,,2013-12-15 17:42:00,
2013-12-15 10:52:00,30.0,28.0,30.16,SW,235,0.0,3.0,93,0.00,,,0.10,,2013-12-15 17:52:00,
2013-12-15 11:12:00,31.0,29.0,30.16,SW,235,0.0,0.0,93,0.00,,,0.10,,2013-12-15 18:12:00,
2013-12-15 11:21:00,31.0,29.0,30.15,SW,235,0.0,0.0,93,0.00,,,0.10,,2013-12-15 18:21:00,
2013-12-15 11:42:00,32.0,30.0,30.13,WSW,238,0.0,1.0,92,0.00,,,0.10,,2013-12-15 18:42:00,
2013-12-15 11:52:00,32.0,29.0,30.12,WSW,246,0.0,3.0,90,0.00,,,0.10,,2013-12-15 18:52:00,
2013-12-15 12:21:00,33.0,30.0,30.14,WSW,246,0.0,1.0,89,0.00,,,0.10,,2013-12-15 19:21:00,
2013-12-15 12:42:00,34.0,31.0,30.11,WSW,246,0.0,0.0,88,0.00,,,0.10,,2013-12-15 19:42:00,
2013-12-15 12:52:00,35.0,31.0,30.13,WSW,246,0.0,1.0,85,0.00,,,0.10,,2013-12-15 19:52:00,
2013-12-15 13:22:00,35.0,31.0,30.12,WSW,246,0.0,1.0,84,0.00,,,0.10,,2013-12-15 20:22:00,
2013-12-15 13:41:00,35.0,31.0,30.12,WSW,246,0.0,0.0,84,0.00,,,0.10,,2013-12-15 20:41:00,
2013-12-15 13:52:00,36.0,31.0,30.10,WSW,246,0.0,0.0,83,0.00,,,0.10,,2013-12-15 20:52:00,
2013-12-15 14:21:00,36.0,31.0,30.11,WSW,246,0.0,1.0,83,0.00,,,0.10,,2013-12-15 21:21:00,
2013-12-15 14:43:00,36.0,31.0,30.12,WNW,289,0.0,4.0,83,0.00,,,0.10,,2013-12-15 21:43:00,
2013-12-15 14:53:00,36.0,32.0,30.13,WNW,289,0.0,1.0,84,0.00,,,0.10,,2013-12-15 21:53:00,
2013-12-15 15:23:00,36.0,31.0,30.13,WNW,289,0.0,2.0,83,0.00,,,0.10,,2013-12-15 22:23:00,
2013-12-15 15:42:00,36.0,32.0,30.10,WNW,289,0.0,0.0,84,0.00,,,0.10,,2013-12-15 22:42:00,
2013-12-15 15:52:00,36.0,31.0,30.10,WNW,289,1.0,3.0,83,0.00,,,0.10,,2013-12-15 22:52:00,
2013-12-15 16:11:00,36.0,32.0,30.11,WNW,289,0.0,1.0,84,0.00,,,0.08,,2013-12-15 23:11:00,
2013-12-15 16:21:00,36.0,32.0,30.11,WNW,289,0.0,0.0,84,0.00,,,0.08,,2013-12-15 23:21:00,
2013-12-15 16:52:00,35.0,31.0,30.11,WNW,289,0.0,0.0,85,0.00,,,0.08,,2013-12-15 23:52:00,
2013-12-15 17:21:00,35.0,31.0,30.11,WNW,289,0.0,0.0,86,0.00,,,0.07,,2013-12-16 00:21:00,
2013-12-15 17:52:00,34.0,31.0,30.11,WNW,289,0.0,2.0,87,0.00,,,0.07,,2013-12-16 00:52:00,
2013-12-15 18:21:00,35.0,32.0,30.12,WNW,289,0.0,1.0,87,0.00,,,0.05,,2013-12-16 01:21:00,
2013-12-15 18:41:00,34.0,31.0,30.11,WNW,289,0.0,0.0,88,0.00,,,0.05,,2013-12-16 01:41:00,
2013-12-15 18:52:00,34.0,31.0,30.11,WNW,289,0.0,2.0,88,0.00,,,0.05,,2013-12-16 01:52:00,
2013-12-15 19:21:00,35.0,32.0,30.11,WNW,289,0.0,0.0,89,0.00,,,0.03,,2013-12-16 02:21:00,
2013-12-15 19:42:00,36.0,33.0,30.12,WNW,289,1.0,2.0,87,0.00,,,0.03,,2013-12-16 02:42:00,
2013-12-15 19:52:00,38.0,32.0,30.11,SE,142,1.0,4.0,80,0.00,,,0.03,,2013-12-16 02:52:00,
2013-12-15 20:21:00,40.0,33.0,30.11,SE,138,0.0,3.0,75,0.00,,,0.02,,2013-12-16 03:21:00,
2013-12-15 20:54:00,40.0,33.0,30.12,SE,138,0.0,3.0,75,0.00,,,0.02,,2013-12-16 03:54:00,
2013-12-15 21:23:00,40.0,32.0,30.12,SE,138,0.0,2.0,74,0.00,,,0.01,,2013-12-16 04:23:00,
2013-12-15 21:42:00,40.0,32.0,30.12,SE,138,0.0,2.0,74,0.00,,,0.01,,2013-12-16 04:42:00,
2013-12-15 21:52:00,41.0,31.0,30.12,SSE,162,2.0,4.0,68,0.00,,,0.01,,2013-12-16 04:52:00,
2013-12-15 22:22:00,42.0,31.0,30.11,SSE,148,2.0,3.0,65,0.00,,,0.00,,2013-12-16 05:22:00,
2013-12-15 22:53:00,43.0,31.0,30.11,South,171,3.0,7.0,62,0.00,,,0.00,,2013-12-16 05:53:00,
2013-12-15 23:22:00,40.0,32.0,30.11,SE,134,2.0,5.0,73,0.00,,,0.00,,2013-12-16 06:22:00,
2013-12-15 23:42:00,40.0,32.0,30.12,SE,131,2.0,4.0,72,0.00,,,0.00,,2013-12-16 06:42:00,
2013-12-15 23:52:00,40.0,31.0,30.12,SE,134,3.0,5.0,71,0.00,,,0.00,,2013-12-16 06:52:00,